Fidato — PB5970 — position and weather

sailwx.info

Track history (hours):
 
Tides and Currents Weather Stations Pressure Air Temp Water Temp Dewpoint Dewpoint Depression Visibility Wind Speed Wind Dir Waves Ship Positions

Fidato

Last reported at 2014-Dec-19 16:28 UTC. Time now 2014-Dec-20 15:06 UTC.
Position N 51°26' E 006°44'.

Length 135 m; draft 2.5 m.

Type: Ship. MMSI: 244670975.

Date/timePositionNaut miles runAvg speedWind from/ knotsBaromVisibWave heightAir tempDewpointWater temp
2014-Dec-19 16:28N 51°26' E 006°44'0 0.0
2014-Dec-19 14:31N 51°26' E 006°44'43 3.3
2014-Dec-19 01:33N 51°52' E 005°50'6 6.0
2014-Dec-19 00:33N 51°54' E 005°41'6 5.9
2014-Dec-18 23:33N 51°53' E 005°31'4 4.0
2014-Dec-18 22:33N 51°55' E 005°25'5 4.9
2014-Dec-18 21:33N 51°58' E 005°19'7 6.6
2014-Dec-18 20:33N 52°01' E 005°09'7 7.0
2014-Dec-18 19:33N 52°07' E 005°04'6 6.4
2014-Dec-18 18:33N 52°13' E 005°00'7 7.0
2014-Dec-18 17:33N 52°20' E 005°01'3 3.0
2014-Dec-18 16:33N 52°22' E 004°57'0 0.2
2014-Dec-18 15:33N 52°23' E 004°57'7 6.6
2014-Dec-18 14:33N 52°25' E 004°48'6 6.4
2014-Dec-18 13:33N 52°28' E 004°38'0 0.1
2014-Dec-18 12:33N 52°28' E 004°38'0 0.0
2014-Dec-18 11:33N 52°28' E 004°38'0 0.0
2014-Dec-18 10:33N 52°28' E 004°38'0 0.0
2014-Dec-18 09:33N 52°28' E 004°38'0 0.0
2014-Dec-18 08:33N 52°28' E 004°38'0 0.0
2014-Dec-18 07:33N 52°28' E 004°38'0 0.0
2014-Dec-18 06:33N 52°28' E 004°38'0 0.0
2014-Dec-18 05:33N 52°28' E 004°38'0 0.0
2014-Dec-18 04:33N 52°28' E 004°38'0 0.0
2014-Dec-18 03:33N 52°28' E 004°38'0 0.0
2014-Dec-18 02:33N 52°28' E 004°38'0 0.0
2014-Dec-18 01:33N 52°28' E 004°38'0 0.0
2014-Dec-18 00:33N 52°28' E 004°38'0 0.0
2014-Dec-17 23:33N 52°28' E 004°38'0 0.0
2014-Dec-17 22:33N 52°28' E 004°38'0 0.0
2014-Dec-17 21:33N 52°28' E 004°38'0 0.0
2014-Dec-17 20:33N 52°28' E 004°38'0 0.0
2014-Dec-17 19:33N 52°28' E 004°38'0 0.0
2014-Dec-17 18:33N 52°28' E 004°38'0 0.0
2014-Dec-17 17:33N 52°28' E 004°38'0 0.0
2014-Dec-17 16:33N 52°28' E 004°38'0 0.0
2014-Dec-17 15:33N 52°28' E 004°38'0 0.0
2014-Dec-17 14:33N 52°28' E 004°38'0 0.0
2014-Dec-17 13:33N 52°28' E 004°38'0 0.0
2014-Dec-17 12:33N 52°28' E 004°38'0 0.0
2014-Dec-17 11:33N 52°28' E 004°38'0 0.0
2014-Dec-17 10:33N 52°28' E 004°38'2 2.1
2014-Dec-17 09:33N 52°27' E 004°41'9 9.4
2014-Dec-17 08:33N 52°23' E 004°55'7 7.2
2014-Dec-17 07:32N 52°17' E 005°01'8 8.5
2014-Dec-17 06:33N 52°08' E 005°02'8 7.8
2014-Dec-17 05:33N 52°01' E 005°07'5 4.7
2014-Dec-17 04:33N 51°59' E 005°00'7 7.4
2014-Dec-17 03:33N 51°56' E 004°49'8 7.7
2014-Dec-17 02:34N 51°53' E 004°37'9 8.5
2014-Dec-17 01:33N 51°44' E 004°38'9 8.5
2014-Dec-17 00:33N 51°42' E 004°25'3 3.0
2014-Dec-16 23:30N 51°40' E 004°21'7 7.4
2014-Dec-16 22:33N 51°40' E 004°10'0 0.3
2014-Dec-16 21:33N 51°40' E 004°09'5 4.9
2014-Dec-16 20:33N 51°37' E 004°03'7 6.6
2014-Dec-16 19:33N 51°30' E 004°00'3 3.0
2014-Dec-16 18:33N 51°27' E 004°01'3 2.6
2014-Dec-16 17:33N 51°25' E 003°58'8 7.5
2014-Dec-16 16:33N 51°20' E 003°49'0 0.3
2014-Dec-16 15:33N 51°20' E 003°49'6 5.5
2014-Dec-16 14:33N 51°14' E 003°49'9 8.6
2014-Dec-16 13:33N 51°06' E 003°45'0 0.0
2014-Dec-16 12:33N 51°06' E 003°45'0 0.0
2014-Dec-16 11:33N 51°06' E 003°45'0 0.0
2014-Dec-16 10:33N 51°06' E 003°45'0 0.0
2014-Dec-16 09:33N 51°06' E 003°44'0 0.0
2014-Dec-16 08:33N 51°06' E 003°44'0 0.0
2014-Dec-16 07:33N 51°06' E 003°44'0 0.1
2014-Dec-16 06:33N 51°06' E 003°45'0 0.0
2014-Dec-16 05:33N 51°06' E 003°45'0 0.0
2014-Dec-16 04:32N 51°06' E 003°45'0 0.0
2014-Dec-16 03:32N 51°06' E 003°45'0 0.0
2014-Dec-16 02:33N 51°06' E 003°45'0 0.0
2014-Dec-16 01:33N 51°06' E 003°45'0 0.0
2014-Dec-16 00:07N 51°06' E 003°45'0 0.0
2014-Dec-15 23:33N 51°06' E 003°45'0 0.0
2014-Dec-15 22:33N 51°06' E 003°45'0 0.0
2014-Dec-15 21:34N 51°06' E 003°45'6 6.0
2014-Dec-15 20:34N 51°12' E 003°48'7 6.8
2014-Dec-15 19:33N 51°18' E 003°50'4 4.5
2014-Dec-15 18:33N 51°22' E 003°54'7 6.7
2014-Dec-15 17:33N 51°27' E 004°01'4 3.9
2014-Dec-15 16:33N 51°31' E 004°01'6 6.1
2014-Dec-15 15:33N 51°37' E 004°03'5 4.4
2014-Dec-15 14:30N 51°40' E 004°10'0 0.2
2014-Dec-15 13:23N 51°40' E 004°10'2 2.2
2014-Dec-15 12:33N 51°39' E 004°13'8 5.8
2014-Dec-15 11:06N 51°42' E 004°25'4 6.9
2014-Dec-15 10:27N 51°42' E 004°33'8 9.0
2014-Dec-15 09:33N 51°45' E 004°44'6 6.1
2014-Dec-15 08:33N 51°49' E 004°53'0 0.0
2014-Dec-15 07:33N 51°49' E 004°53'0 0.2
2014-Dec-15 06:33N 51°49' E 004°53'6 5.8
2014-Dec-15 05:33N 51°49' E 005°02'7 7.1
2014-Dec-15 04:33N 51°49' E 005°14'0 0.2
2014-Dec-15 03:33N 51°49' E 005°13'0 0.0
2014-Dec-15 02:33N 51°49' E 005°13'0 0.0
2014-Dec-15 01:33N 51°49' E 005°13'0 0.0
2014-Dec-15 00:33N 51°49' E 005°13'0 0.0
2014-Dec-14 23:33N 51°49' E 005°13'0 0.0
2014-Dec-14 22:33N 51°49' E 005°13'0 0.0
2014-Dec-14 21:33N 51°49' E 005°13'0 0.0
2014-Dec-14 20:33N 51°49' E 005°13'0 0.0
2014-Dec-14 19:33N 51°49' E 005°13'0 0.0
2014-Dec-14 18:33N 51°49' E 005°13'0 0.0
2014-Dec-14 17:33N 51°49' E 005°13'0 0.0
2014-Dec-14 16:33N 51°49' E 005°13'0 0.0
2014-Dec-14 15:33N 51°49' E 005°13'0 0.0
2014-Dec-14 14:33N 51°49' E 005°13'0 0.0
2014-Dec-14 13:33N 51°49' E 005°13'0 0.0
2014-Dec-14 12:33N 51°49' E 005°13'0 0.0
2014-Dec-14 11:33N 51°49' E 005°13'0 0.0
2014-Dec-14 10:33N 51°49' E 005°13'0 0.0
2014-Dec-14 09:33N 51°49' E 005°13'0 0.1
2014-Dec-14 08:33N 51°49' E 005°13'5 5.4
2014-Dec-14 07:33N 51°48' E 005°22'7 7.4
2014-Dec-14 06:33N 51°53' E 005°31'8 8.1
2014-Dec-14 05:32N 51°53' E 005°44'22 7.2
2014-Dec-14 02:30N 51°48' E 006°19'29 5.8
2014-Dec-13 21:28N 51°22' E 006°39'6 7.0
2014-Dec-13 20:33N 51°16' E 006°43'5 5.1
2014-Dec-13 19:34N 51°11' E 006°46'5 5.1
2014-Dec-13 18:33N 51°07' E 006°52'14 7.0
2014-Dec-13 16:32N 50°54' E 006°59'77 3.8
2014-Dec-12 20:29N 50°06' E 008°32'2 1.1
2014-Dec-12 18:26N 50°05' E 008°36'4 4.2
2014-Dec-12 17:33N 50°07' E 008°41'3 3.4
2014-Dec-12 16:33N 50°07' E 008°47'4 3.6
2014-Dec-12 15:33N 50°08' E 008°52'2 1.9
2014-Dec-12 14:33N 50°07' E 008°55'0 0.1
2014-Dec-12 13:33N 50°07' E 008°55'0 0.0
2014-Dec-12 12:33N 50°07' E 008°55'0 0.0
2014-Dec-12 11:33N 50°07' E 008°55'0 0.0
2014-Dec-12 10:33N 50°07' E 008°55'0 0.0
2014-Dec-12 09:33N 50°07' E 008°55'0 0.0
2014-Dec-12 08:33N 50°07' E 008°55'0 0.0
2014-Dec-12 07:33N 50°07' E 008°55'0 0.0
2014-Dec-12 06:33N 50°07' E 008°55'0 0.0
2014-Dec-12 05:33N 50°07' E 008°55'0 0.0
2014-Dec-12 04:33N 50°07' E 008°55'0 0.0
2014-Dec-12 03:33N 50°07' E 008°55'0 0.0
2014-Dec-12 02:33N 50°07' E 008°55'0 0.0
2014-Dec-12 01:33N 50°07' E 008°55'0 0.0
2014-Dec-12 00:33N 50°07' E 008°55'0 0.0
2014-Dec-11 23:33N 50°07' E 008°55'0 0.0
2014-Dec-11 22:33N 50°07' E 008°55'0 0.0
2014-Dec-11 21:33N 50°07' E 008°55'0 0.0
2014-Dec-11 20:33N 50°07' E 008°55'0 0.0
2014-Dec-11 19:33N 50°07' E 008°55'0 0.0
2014-Dec-11 18:33N 50°07' E 008°55'0 0.0
2014-Dec-11 17:33N 50°07' E 008°55'0 0.0
2014-Dec-11 16:33N 50°07' E 008°55'0 0.0
2014-Dec-11 15:33N 50°07' E 008°55'0 0.0
2014-Dec-11 14:33N 50°07' E 008°55'0 0.4
2014-Dec-11 13:33N 50°07' E 008°55'4 3.7
2014-Dec-11 12:33N 50°08' E 008°49'4 3.9
2014-Dec-11 11:33N 50°06' E 008°44'5 5.1
2014-Dec-11 10:33N 50°05' E 008°36'  
Track history (hours):
 
Tides and Currents Weather Stations Pressure Air Temp Water Temp Dewpoint Dewpoint Depression Visibility Wind Speed Wind Dir Waves Ship Positions

Fidato

Last reported at 2014-Dec-19 16:28 UTC. Time now 2014-Dec-20 15:06 UTC.
Position N 51°26' E 006°44'.

Length 135 m; draft 2.5 m.

Type: Ship. MMSI: 244670975.

Date/timePositionNaut miles runAvg speedWind from/ knotsBaromVisibWave heightAir tempDewpointWater temp
2014-Dec-19 16:28N 51°26' E 006°44'0 0.0
2014-Dec-19 14:31N 51°26' E 006°44'43 3.3
2014-Dec-19 01:33N 51°52' E 005°50'6 6.0
2014-Dec-19 00:33N 51°54' E 005°41'6 5.9
2014-Dec-18 23:33N 51°53' E 005°31'4 4.0
2014-Dec-18 22:33N 51°55' E 005°25'5 4.9
2014-Dec-18 21:33N 51°58' E 005°19'7 6.6
2014-Dec-18 20:33N 52°01' E 005°09'7 7.0
2014-Dec-18 19:33N 52°07' E 005°04'6 6.4
2014-Dec-18 18:33N 52°13' E 005°00'7 7.0
2014-Dec-18 17:33N 52°20' E 005°01'3 3.0
2014-Dec-18 16:33N 52°22' E 004°57'0 0.2
2014-Dec-18 15:33N 52°23' E 004°57'7 6.6
2014-Dec-18 14:33N 52°25' E 004°48'6 6.4
2014-Dec-18 13:33N 52°28' E 004°38'0 0.1
2014-Dec-18 12:33N 52°28' E 004°38'0 0.0
2014-Dec-18 11:33N 52°28' E 004°38'0 0.0
2014-Dec-18 10:33N 52°28' E 004°38'0 0.0
2014-Dec-18 09:33N 52°28' E 004°38'0 0.0
2014-Dec-18 08:33N 52°28' E 004°38'0 0.0
2014-Dec-18 07:33N 52°28' E 004°38'0 0.0
2014-Dec-18 06:33N 52°28' E 004°38'0 0.0
2014-Dec-18 05:33N 52°28' E 004°38'0 0.0
2014-Dec-18 04:33N 52°28' E 004°38'0 0.0
2014-Dec-18 03:33N 52°28' E 004°38'0 0.0
2014-Dec-18 02:33N 52°28' E 004°38'0 0.0
2014-Dec-18 01:33N 52°28' E 004°38'0 0.0
2014-Dec-18 00:33N 52°28' E 004°38'0 0.0
2014-Dec-17 23:33N 52°28' E 004°38'0 0.0
2014-Dec-17 22:33N 52°28' E 004°38'0 0.0
2014-Dec-17 21:33N 52°28' E 004°38'0 0.0
2014-Dec-17 20:33N 52°28' E 004°38'0 0.0
2014-Dec-17 19:33N 52°28' E 004°38'0 0.0
2014-Dec-17 18:33N 52°28' E 004°38'0 0.0
2014-Dec-17 17:33N 52°28' E 004°38'0 0.0
2014-Dec-17 16:33N 52°28' E 004°38'0 0.0
2014-Dec-17 15:33N 52°28' E 004°38'0 0.0
2014-Dec-17 14:33N 52°28' E 004°38'0 0.0
2014-Dec-17 13:33N 52°28' E 004°38'0 0.0
2014-Dec-17 12:33N 52°28' E 004°38'0 0.0
2014-Dec-17 11:33N 52°28' E 004°38'0 0.0
2014-Dec-17 10:33N 52°28' E 004°38'2 2.1
2014-Dec-17 09:33N 52°27' E 004°41'9 9.4
2014-Dec-17 08:33N 52°23' E 004°55'7 7.2
2014-Dec-17 07:32N 52°17' E 005°01'8 8.5
2014-Dec-17 06:33N 52°08' E 005°02'8 7.8
2014-Dec-17 05:33N 52°01' E 005°07'5 4.7
2014-Dec-17 04:33N 51°59' E 005°00'7 7.4
2014-Dec-17 03:33N 51°56' E 004°49'8 7.7
2014-Dec-17 02:34N 51°53' E 004°37'9 8.5
2014-Dec-17 01:33N 51°44' E 004°38'9 8.5
2014-Dec-17 00:33N 51°42' E 004°25'3 3.0
2014-Dec-16 23:30N 51°40' E 004°21'7 7.4
2014-Dec-16 22:33N 51°40' E 004°10'0 0.3
2014-Dec-16 21:33N 51°40' E 004°09'5 4.9
2014-Dec-16 20:33N 51°37' E 004°03'7 6.6
2014-Dec-16 19:33N 51°30' E 004°00'3 3.0
2014-Dec-16 18:33N 51°27' E 004°01'3 2.6
2014-Dec-16 17:33N 51°25' E 003°58'8 7.5
2014-Dec-16 16:33N 51°20' E 003°49'0 0.3
2014-Dec-16 15:33N 51°20' E 003°49'6 5.5
2014-Dec-16 14:33N 51°14' E 003°49'9 8.6
2014-Dec-16 13:33N 51°06' E 003°45'0 0.0
2014-Dec-16 12:33N 51°06' E 003°45'0 0.0
2014-Dec-16 11:33N 51°06' E 003°45'0 0.0
2014-Dec-16 10:33N 51°06' E 003°45'0 0.0
2014-Dec-16 09:33N 51°06' E 003°44'0 0.0
2014-Dec-16 08:33N 51°06' E 003°44'0 0.0
2014-Dec-16 07:33N 51°06' E 003°44'0 0.1
2014-Dec-16 06:33N 51°06' E 003°45'0 0.0
2014-Dec-16 05:33N 51°06' E 003°45'0 0.0
2014-Dec-16 04:32N 51°06' E 003°45'0 0.0
2014-Dec-16 03:32N 51°06' E 003°45'0 0.0
2014-Dec-16 02:33N 51°06' E 003°45'0 0.0
2014-Dec-16 01:33N 51°06' E 003°45'0 0.0
2014-Dec-16 00:07N 51°06' E 003°45'0 0.0
2014-Dec-15 23:33N 51°06' E 003°45'0 0.0
2014-Dec-15 22:33N 51°06' E 003°45'0 0.0
2014-Dec-15 21:34N 51°06' E 003°45'6 6.0
2014-Dec-15 20:34N 51°12' E 003°48'7 6.8
2014-Dec-15 19:33N 51°18' E 003°50'4 4.5
2014-Dec-15 18:33N 51°22' E 003°54'7 6.7
2014-Dec-15 17:33N 51°27' E 004°01'4 3.9
2014-Dec-15 16:33N 51°31' E 004°01'6 6.1
2014-Dec-15 15:33N 51°37' E 004°03'5 4.4
2014-Dec-15 14:30N 51°40' E 004°10'0 0.2
2014-Dec-15 13:23N 51°40' E 004°10'2 2.2
2014-Dec-15 12:33N 51°39' E 004°13'8 5.8
2014-Dec-15 11:06N 51°42' E 004°25'4 6.9
2014-Dec-15 10:27N 51°42' E 004°33'8 9.0
2014-Dec-15 09:33N 51°45' E 004°44'6 6.1
2014-Dec-15 08:33N 51°49' E 004°53'0 0.0
2014-Dec-15 07:33N 51°49' E 004°53'0 0.2
2014-Dec-15 06:33N 51°49' E 004°53'6 5.8
2014-Dec-15 05:33N 51°49' E 005°02'7 7.1
2014-Dec-15 04:33N 51°49' E 005°14'0 0.2
2014-Dec-15 03:33N 51°49' E 005°13'0 0.0
2014-Dec-15 02:33N 51°49' E 005°13'0 0.0
2014-Dec-15 01:33N 51°49' E 005°13'0 0.0
2014-Dec-15 00:33N 51°49' E 005°13'0 0.0
2014-Dec-14 23:33N 51°49' E 005°13'0 0.0
2014-Dec-14 22:33N 51°49' E 005°13'0 0.0
2014-Dec-14 21:33N 51°49' E 005°13'0 0.0
2014-Dec-14 20:33N 51°49' E 005°13'0 0.0
2014-Dec-14 19:33N 51°49' E 005°13'0 0.0
2014-Dec-14 18:33N 51°49' E 005°13'0 0.0
2014-Dec-14 17:33N 51°49' E 005°13'0 0.0
2014-Dec-14 16:33N 51°49' E 005°13'0 0.0
2014-Dec-14 15:33N 51°49' E 005°13'0 0.0
2014-Dec-14 14:33N 51°49' E 005°13'0 0.0
2014-Dec-14 13:33N 51°49' E 005°13'0 0.0
2014-Dec-14 12:33N 51°49' E 005°13'0 0.0
2014-Dec-14 11:33N 51°49' E 005°13'0 0.0
2014-Dec-14 10:33N 51°49' E 005°13'0 0.0
2014-Dec-14 09:33N 51°49' E 005°13'0 0.1
2014-Dec-14 08:33N 51°49' E 005°13'5 5.4
2014-Dec-14 07:33N 51°48' E 005°22'7 7.4
2014-Dec-14 06:33N 51°53' E 005°31'8 8.1
2014-Dec-14 05:32N 51°53' E 005°44'22 7.2
2014-Dec-14 02:30N 51°48' E 006°19'29 5.8
2014-Dec-13 21:28N 51°22' E 006°39'6 7.0
2014-Dec-13 20:33N 51°16' E 006°43'5 5.1
2014-Dec-13 19:34N 51°11' E 006°46'5 5.1
2014-Dec-13 18:33N 51°07' E 006°52'14 7.0
2014-Dec-13 16:32N 50°54' E 006°59'77 3.8
2014-Dec-12 20:29N 50°06' E 008°32'2 1.1
2014-Dec-12 18:26N 50°05' E 008°36'4 4.2
2014-Dec-12 17:33N 50°07' E 008°41'3 3.4
2014-Dec-12 16:33N 50°07' E 008°47'4 3.6
2014-Dec-12 15:33N 50°08' E 008°52'2 1.9
2014-Dec-12 14:33N 50°07' E 008°55'0 0.1
2014-Dec-12 13:33N 50°07' E 008°55'0 0.0
2014-Dec-12 12:33N 50°07' E 008°55'0 0.0
2014-Dec-12 11:33N 50°07' E 008°55'0 0.0
2014-Dec-12 10:33N 50°07' E 008°55'0 0.0
2014-Dec-12 09:33N 50°07' E 008°55'0 0.0
2014-Dec-12 08:33N 50°07' E 008°55'0 0.0
2014-Dec-12 07:33N 50°07' E 008°55'0 0.0
2014-Dec-12 06:33N 50°07' E 008°55'0 0.0
2014-Dec-12 05:33N 50°07' E 008°55'0 0.0
2014-Dec-12 04:33N 50°07' E 008°55'0 0.0
2014-Dec-12 03:33N 50°07' E 008°55'0 0.0
2014-Dec-12 02:33N 50°07' E 008°55'0 0.0
2014-Dec-12 01:33N 50°07' E 008°55'0 0.0
2014-Dec-12 00:33N 50°07' E 008°55'0 0.0
2014-Dec-11 23:33N 50°07' E 008°55'0 0.0
2014-Dec-11 22:33N 50°07' E 008°55'0 0.0
2014-Dec-11 21:33N 50°07' E 008°55'0 0.0
2014-Dec-11 20:33N 50°07' E 008°55'0 0.0
2014-Dec-11 19:33N 50°07' E 008°55'0 0.0
2014-Dec-11 18:33N 50°07' E 008°55'0 0.0
2014-Dec-11 17:33N 50°07' E 008°55'0 0.0
2014-Dec-11 16:33N 50°07' E 008°55'0 0.0
2014-Dec-11 15:33N 50°07' E 008°55'0 0.0
2014-Dec-11 14:33N 50°07' E 008°55'0 0.4
2014-Dec-11 13:33N 50°07' E 008°55'4 3.7
2014-Dec-11 12:33N 50°08' E 008°49'4 3.9
2014-Dec-11 11:33N 50°06' E 008°44'5 5.1
2014-Dec-11 10:33N 50°05' E 008°36'  

Dump ship's entire track history